Time;durP1;ratioP1;P1;durP2;ratioP2;P2;SDS_P1;SDS_P2;PMS_P1;PMS_P2;Temp;Humidity;BMP_temperature;BMP_pressure;BME280_temperature;BME280_humidity;BME280_pressure;Samples;Min_cycle;Max_cycle;Signal;HPM_P1;HPM_P2
2022/01/27 00:01:29;;;;;;;33.17;16.33;;;5.50;91.40;;;;;;9178558;19;20033;-75
2022/01/27 00:04:47;;;;;;;34.97;17.00;;;5.50;91.40;;;;;;9175636;19;20018;-75
2022/01/27 00:08:08;;;;;;;40.05;17.73;;;5.50;91.40;;;;;;9175668;19;20021;-73
2022/01/27 00:11:15;;;;;;;37.05;16.63;;;5.50;91.40;;;;;;9176182;19;20010;-74
2022/01/27 00:14:21;;;;;;;31.88;16.23;;;5.50;91.40;;;;;;9175203;19;20051;-74
2022/01/27 00:17:31;;;;;;;30.35;16.02;;;5.50;91.30;;;;;;9177567;19;20022;-75
2022/01/27 00:20:38;;;;;;;29.38;16.02;;;5.50;91.40;;;;;;9179709;19;20011;-75
2022/01/27 00:23:45;;;;;;;39.22;18.15;;;5.50;91.40;;;;;;9177179;19;20037;-75
2022/01/27 00:26:50;;;;;;;29.15;17.05;;;5.50;91.30;;;;;;9175973;19;20042;-75
2022/01/27 00:29:56;;;;;;;33.80;17.30;;;5.50;91.30;;;;;;9178392;19;20021;-75
2022/01/27 00:33:03;;;;;;;29.23;16.20;;;5.50;91.30;;;;;;9176635;19;20023;-75
2022/01/27 00:36:11;;;;;;;31.63;16.83;;;5.50;91.40;;;;;;9177923;19;20022;-75
2022/01/27 00:39:16;;;;;;;31.88;16.58;;;5.60;91.40;;;;;;9178535;19;20014;-74
2022/01/27 00:42:22;;;;;;;33.97;17.13;;;5.50;91.30;;;;;;9173885;19;20018;-74
2022/01/27 00:45:30;;;;;;;36.65;17.90;;;5.60;91.30;;;;;;9175347;19;20019;-74
2022/01/27 00:48:35;;;;;;;30.77;16.83;;;5.60;91.30;;;;;;9177128;19;20345;-74
2022/01/27 00:51:45;;;;;;;32.30;16.95;;;5.60;91.30;;;;;;9177699;19;20476;-75
2022/01/27 00:54:52;;;;;;;30.48;16.73;;;5.60;91.30;;;;;;9178360;19;20017;-76
2022/01/27 00:58:12;;;;;;;31.27;17.23;;;5.60;91.30;;;;;;9173542;19;20007;-75
2022/01/27 01:01:23;;;;;;;28.92;16.80;;;5.60;91.30;;;;;;9173681;19;20099;-74
2022/01/27 01:04:33;;;;;;;29.48;16.52;;;5.60;91.30;;;;;;9173349;19;20018;-74
2022/01/27 01:07:44;;;;;;;29.95;15.98;;;5.60;91.30;;;;;;9177763;19;20342;-75
2022/01/27 01:14:33;;;;;;;30.02;18.10;;;5.60;91.30;;;;;;9185901;19;20445;-75
2022/01/27 01:21:25;;;;;;;31.40;17.83;;;5.60;91.30;;;;;;9183407;19;20014;-74
2022/01/27 01:31:28;;;;;;;33.75;19.10;;;5.60;91.30;;;;;;9183878;19;20018;-75
2022/01/27 01:34:33;;;;;;;30.45;17.33;;;5.60;91.30;;;;;;9184214;19;20400;-74
2022/01/27 01:37:41;;;;;;;29.65;17.95;;;5.60;91.20;;;;;;9184703;19;20015;-74
2022/01/27 01:40:51;;;;;;;28.38;16.67;;;5.60;91.20;;;;;;9180348;19;20025;-74
2022/01/27 01:43:56;;;;;;;33.45;16.98;;;5.60;91.30;;;;;;9181773;19;20030;-74
2022/01/27 01:47:02;;;;;;;27.33;15.73;;;5.60;91.20;;;;;;9182314;19;20014;-75
2022/01/27 01:50:12;;;;;;;23.25;14.48;;;5.60;91.20;;;;;;9184533;19;20010;-74
2022/01/27 01:53:18;;;;;;;23.83;15.57;;;5.60;91.20;;;;;;9186138;19;20015;-75
2022/01/27 01:56:26;;;;;;;26.73;15.18;;;5.60;91.20;;;;;;9181856;19;20019;-75
2022/01/27 01:59:32;;;;;;;28.35;16.15;;;5.60;91.20;;;;;;9180712;19;20014;-74
2022/01/27 02:02:37;;;;;;;29.77;15.43;;;5.60;91.20;;;;;;9180709;19;20033;-73
2022/01/27 02:05:48;;;;;;;26.13;15.23;;;5.60;91.20;;;;;;9180360;19;20023;-74
2022/01/27 02:09:10;;;;;;;28.70;15.07;;;5.60;91.20;;;;;;9183285;19;20015;-75
2022/01/27 02:19:08;;;;;;;23.95;14.55;;;5.60;91.20;;;;;;9176543;19;20507;-74
2022/01/27 02:22:16;;;;;;;24.05;13.77;;;5.60;91.20;;;;;;9180436;19;20905;-75
2022/01/27 02:25:21;;;;;;;24.73;14.25;;;5.60;91.20;;;;;;9182778;19;20030;-74
2022/01/27 02:28:26;;;;;;;26.65;13.73;;;5.60;91.20;;;;;;9181378;19;20476;-75
2022/01/27 02:31:32;;;;;;;25.55;13.07;;;5.60;91.20;;;;;;9180133;19;20121;-75
2022/01/27 02:34:37;;;;;;;25.08;13.68;;;5.60;91.20;;;;;;9181401;19;20023;-75
2022/01/27 02:37:45;;;;;;;24.42;13.57;;;5.60;91.20;;;;;;9182258;19;20037;-75
2022/01/27 02:40:56;;;;;;;22.10;13.52;;;5.60;91.20;;;;;;9181930;19;20021;-75
2022/01/27 02:44:01;;;;;;;24.30;12.30;;;5.70;91.20;;;;;;9178084;19;20015;-73
2022/01/27 02:47:07;;;;;;;19.73;12.75;;;5.60;91.20;;;;;;9181312;19;20022;-74
2022/01/27 02:50:12;;;;;;;24.88;13.20;;;5.60;91.20;;;;;;9181179;19;20017;-74
2022/01/27 02:53:20;;;;;;;22.08;12.80;;;5.70;91.20;;;;;;9182987;19;20014;-74
2022/01/27 02:56:25;;;;;;;20.75;12.52;;;5.70;91.20;;;;;;9177925;19;20014;-75
2022/01/27 02:59:30;;;;;;;22.17;12.93;;;5.70;91.20;;;;;;9180011;19;20036;-74
2022/01/27 03:02:36;;;;;;;22.42;12.82;;;5.70;91.20;;;;;;9179553;19;20489;-74
2022/01/27 03:05:42;;;;;;;22.80;13.27;;;5.70;91.10;;;;;;9176613;19;20018;-73
2022/01/27 03:08:51;;;;;;;24.38;13.43;;;5.70;91.40;;;;;;9180648;19;20022;-74
2022/01/27 03:12:01;;;;;;;22.13;13.30;;;5.70;91.10;;;;;;9180758;19;20015;-74
2022/01/27 03:15:07;;;;;;;22.58;13.55;;;5.70;91.10;;;;;;9179511;19;20023;-75
2022/01/27 03:18:15;;;;;;;23.42;14.10;;;5.70;91.10;;;;;;9180068;19;20044;-74
2022/01/27 03:21:20;;;;;;;22.65;13.38;;;5.70;91.10;;;;;;9180660;19;20518;-73
2022/01/27 03:24:28;;;;;;;21.23;13.45;;;5.70;91.10;;;;;;9178152;19;20405;-73
2022/01/27 03:27:34;;;;;;;25.48;13.55;;;5.70;91.10;;;;;;9178993;19;20503;-75
2022/01/27 03:30:39;;;;;;;23.48;13.57;;;5.70;91.10;;;;;;9179869;19;20014;-73
2022/01/27 03:33:47;;;;;;;21.58;12.23;;;5.70;91.10;;;;;;9178893;19;20018;-74
2022/01/27 03:36:52;;;;;;;29.75;14.10;;;5.70;91.10;;;;;;9178984;19;23594;-74
2022/01/27 03:40:00;;;;;;;22.27;13.93;;;5.70;91.10;;;;;;9178898;19;20479;-75
2022/01/27 03:43:09;;;;;;;25.35;13.43;;;5.70;91.10;;;;;;9176156;19;20006;-75
2022/01/27 03:46:14;;;;;;;22.50;13.43;;;5.70;91.10;;;;;;9179141;19;20019;-76
2022/01/27 03:49:20;;;;;;;22.63;13.30;;;5.70;91.10;;;;;;9179099;19;20045;-75
2022/01/27 03:52:25;;;;;;;24.90;13.95;;;5.70;91.10;;;;;;9181023;19;20575;-74
2022/01/27 03:55:33;;;;;;;25.33;13.48;;;5.70;91.10;;;;;;9180137;19;20025;-76
2022/01/27 03:58:38;;;;;;;21.88;12.80;;;5.70;91.10;;;;;;9177591;19;20042;-75
2022/01/27 04:01:43;;;;;;;22.30;13.65;;;5.70;91.10;;;;;;9176308;19;20364;-75
2022/01/27 04:04:48;;;;;;;22.65;12.68;;;5.70;91.10;;;;;;9175288;19;20021;-75
2022/01/27 04:07:57;;;;;;;23.13;13.13;;;5.70;91.10;;;;;;9177364;19;20019;-74
2022/01/27 04:11:05;;;;;;;21.95;13.02;;;5.70;91.10;;;;;;9180415;19;20860;-74
2022/01/27 04:14:11;;;;;;;21.77;12.98;;;5.70;91.10;;;;;;9176045;19;20014;-75
2022/01/27 04:17:16;;;;;;;31.13;14.52;;;5.80;91.10;;;;;;9175718;19;20014;-75
2022/01/27 04:20:22;;;;;;;23.95;12.93;;;5.70;91.10;;;;;;9177595;19;20110;-74
2022/01/27 04:23:28;;;;;;;24.50;13.63;;;5.80;91.10;;;;;;9177842;19;20025;-74
2022/01/27 04:26:42;;;;;;;22.85;13.23;;;5.80;91.10;;;;;;9179954;19;20121;-75
2022/01/27 04:29:49;;;;;;;20.98;13.32;;;5.70;91.20;;;;;;9179908;19;20019;-74
2022/01/27 04:32:57;;;;;;;21.90;13.10;;;5.80;91.10;;;;;;9173719;19;20030;-74
2022/01/27 04:36:07;;;;;;;22.60;13.27;;;5.80;91.10;;;;;;9177954;19;20026;-74
2022/01/27 04:39:18;;;;;;;23.35;13.18;;;5.80;91.10;;;;;;9178431;19;20048;-73
2022/01/27 04:42:37;;;;;;;19.98;12.88;;;5.80;91.10;;;;;;9177580;19;20023;-74
2022/01/27 04:46:00;;;;;;;21.83;12.93;;;5.80;91.10;;;;;;9184006;19;20033;-74
2022/01/27 04:49:08;;;;;;;24.67;13.07;;;5.80;91.10;;;;;;9186754;19;20010;-74
2022/01/27 04:52:13;;;;;;;22.35;13.40;;;5.90;91.10;;;;;;9182625;19;20057;-73
2022/01/27 04:55:21;;;;;;;23.10;12.55;;;5.90;91.10;;;;;;9184546;19;20119;-74
2022/01/27 04:58:32;;;;;;;25.25;12.75;;;5.90;91.40;;;;;;9187434;19;20022;-74
2022/01/27 05:01:42;;;;;;;23.30;12.63;;;5.90;91.10;;;;;;9186564;19;20033;-74
2022/01/27 05:04:51;;;;;;;26.48;12.82;;;5.90;91.10;;;;;;9180772;19;20029;-75
2022/01/27 05:08:19;;;;;;;22.58;12.48;;;5.90;91.10;;;;;;9182964;19;20081;-73
2022/01/27 05:11:31;;;;;;;23.13;12.68;;;5.90;91.30;;;;;;9183188;19;20111;-75
2022/01/27 05:14:39;;;;;;;28.17;13.35;;;6.00;91.10;;;;;;9183625;19;20011;-74
2022/01/27 05:17:44;;;;;;;23.67;13.07;;;6.00;91.10;;;;;;9184964;19;20018;-73
2022/01/27 05:20:49;;;;;;;25.05;12.10;;;6.00;91.10;;;;;;9186444;19;20018;-74
2022/01/27 05:23:57;;;;;;;22.52;11.50;;;6.00;91.10;;;;;;9184296;19;20017;-75
2022/01/27 05:27:02;;;;;;;21.42;11.52;;;6.00;91.10;;;;;;9185347;19;20048;-75
2022/01/27 05:30:11;;;;;;;21.42;12.75;;;6.00;91.10;;;;;;9185032;19;20018;-74
2022/01/27 05:33:16;;;;;;;22.65;12.77;;;6.10;91.10;;;;;;9185648;19;20014;-74
2022/01/27 05:36:21;;;;;;;23.20;13.18;;;6.00;91.10;;;;;;9186327;19;20010;-74
2022/01/27 05:39:26;;;;;;;23.48;12.73;;;6.10;91.10;;;;;;9183961;19;20011;-74
2022/01/27 05:42:31;;;;;;;21.88;12.52;;;6.10;91.10;;;;;;9181734;19;20021;-76
2022/01/27 05:45:40;;;;;;;23.05;12.77;;;6.10;91.10;;;;;;9181034;19;20037;-73
2022/01/27 05:48:45;;;;;;;25.45;13.15;;;6.10;91.10;;;;;;9183453;19;20082;-74
2022/01/27 05:51:51;;;;;;;23.60;12.52;;;6.10;91.10;;;;;;9184778;19;20022;-74
2022/01/27 05:54:56;;;;;;;29.30;13.80;;;6.10;91.10;;;;;;9183140;19;20021;-75
2022/01/27 05:58:01;;;;;;;24.40;13.85;;;6.10;91.10;;;;;;9181194;19;20018;-74
2022/01/27 06:01:08;;;;;;;26.65;13.88;;;6.10;91.20;;;;;;9182160;19;20066;-75
2022/01/27 06:04:14;;;;;;;25.92;13.45;;;6.10;91.10;;;;;;9183486;19;20536;-73
2022/01/27 06:07:19;;;;;;;26.55;14.07;;;6.10;91.10;;;;;;9183205;19;20685;-74
2022/01/27 06:10:24;;;;;;;26.73;14.38;;;6.10;91.20;;;;;;9181770;19;20022;-74
2022/01/27 06:13:29;;;;;;;24.50;13.13;;;6.10;91.20;;;;;;9181901;19;20010;-75
2022/01/27 06:16:36;;;;;;;25.90;13.38;;;6.10;91.20;;;;;;9182155;19;20021;-75
2022/01/27 06:19:44;;;;;;;24.00;13.15;;;6.10;91.20;;;;;;9184431;19;20298;-75
2022/01/27 06:22:50;;;;;;;21.27;13.05;;;6.00;91.20;;;;;;9184813;19;20468;-75
2022/01/27 06:25:56;;;;;;;27.45;14.20;;;6.00;91.20;;;;;;9180388;19;20015;-75
2022/01/27 06:29:01;;;;;;;23.10;12.80;;;6.00;91.20;;;;;;9180452;19;20015;-74
2022/01/27 06:32:11;;;;;;;23.00;13.13;;;6.00;91.30;;;;;;9183304;19;20105;-75
2022/01/27 06:35:16;;;;;;;25.60;13.32;;;6.00;91.30;;;;;;9182589;19;20021;-74
2022/01/27 06:38:22;;;;;;;24.58;13.80;;;6.00;91.30;;;;;;9183243;19;21021;-75
2022/01/27 06:41:29;;;;;;;23.38;12.77;;;6.00;91.30;;;;;;9183045;19;20443;-75
2022/01/27 06:44:35;;;;;;;24.35;12.48;;;6.00;91.30;;;;;;9182556;19;20456;-75
2022/01/27 06:47:42;;;;;;;24.90;13.10;;;6.00;91.40;;;;;;9182482;19;20029;-75
2022/01/27 06:50:53;;;;;;;23.30;12.80;;;6.00;91.40;;;;;;9182163;19;20021;-74
2022/01/27 06:54:01;;;;;;;25.95;12.70;;;6.00;91.40;;;;;;9182284;19;20350;-74
2022/01/27 06:57:07;;;;;;;24.63;12.20;;;6.00;91.40;;;;;;9182655;19;20030;-74
2022/01/27 07:00:13;;;;;;;21.52;11.95;;;6.10;91.50;;;;;;9179496;19;20015;-73
2022/01/27 07:03:23;;;;;;;23.20;10.98;;;6.10;91.50;;;;;;9176993;19;20048;-75
2022/01/27 07:06:32;;;;;;;22.50;11.65;;;6.10;91.50;;;;;;9174832;19;20014;-74
2022/01/27 07:09:37;;;;;;;28.20;12.18;;;6.10;91.50;;;;;;9177937;19;20022;-75
2022/01/27 07:12:43;;;;;;;24.48;11.35;;;6.10;91.70;;;;;;9178685;19;20015;-75
2022/01/27 07:15:48;;;;;;;23.80;12.35;;;6.10;91.50;;;;;;9174757;19;20029;-75
2022/01/27 07:18:56;;;;;;;20.98;11.82;;;6.10;91.60;;;;;;9174128;19;20475;-74
2022/01/27 07:22:02;;;;;;;22.80;11.23;;;6.10;91.60;;;;;;9176904;19;20018;-75
2022/01/27 07:25:10;;;;;;;24.25;12.38;;;6.10;91.60;;;;;;9177190;19;20692;-74
2022/01/27 07:28:15;;;;;;;24.48;12.07;;;6.10;91.60;;;;;;9179731;19;20018;-76
2022/01/27 07:31:20;;;;;;;21.95;11.57;;;6.20;91.60;;;;;;9173052;19;20388;-76
2022/01/27 07:34:28;;;;;;;22.70;11.65;;;6.20;91.60;;;;;;9170818;19;20395;-74
2022/01/27 07:37:36;;;;;;;21.00;11.43;;;6.20;91.70;;;;;;9176434;19;20019;-75
2022/01/27 07:40:41;;;;;;;21.45;10.98;;;6.20;91.70;;;;;;9180304;19;20014;-76
2022/01/27 07:43:52;;;;;;;23.23;11.98;;;6.20;91.70;;;;;;9181839;19;20082;-75
2022/01/27 07:46:59;;;;;;;24.98;12.98;;;6.30;91.70;;;;;;9176951;19;20511;-75
2022/01/27 07:50:08;;;;;;;20.63;10.88;;;6.20;91.70;;;;;;9180140;19;20010;-75
2022/01/27 07:53:13;;;;;;;19.02;10.95;;;6.30;91.80;;;;;;9180229;19;20017;-75
2022/01/27 07:56:18;;;;;;;19.58;10.57;;;6.20;91.80;;;;;;9181003;19;20018;-75
2022/01/27 07:59:23;;;;;;;20.02;10.85;;;6.30;91.80;;;;;;9181055;19;20014;-75
2022/01/27 08:02:28;;;;;;;21.58;10.20;;;6.30;91.80;;;;;;9180843;19;20364;-75
2022/01/27 08:05:36;;;;;;;20.90;10.45;;;6.30;91.80;;;;;;9175292;19;20106;-75
2022/01/27 08:08:43;;;;;;;17.88;9.88;;;6.30;91.90;;;;;;9176625;19;20349;-74
2022/01/27 08:11:47;;;;;;;18.38;9.80;;;6.30;91.90;;;;;;9174690;19;20019;-75
2022/01/27 08:14:53;;;;;;;18.42;9.52;;;6.40;91.90;;;;;;9178549;19;20011;-74
2022/01/27 08:17:58;;;;;;;19.02;9.65;;;6.40;91.90;;;;;;9176597;19;20007;-75
2022/01/27 08:21:06;;;;;;;19.48;9.18;;;6.40;92.00;;;;;;9185408;19;20011;-76
2022/01/27 08:24:11;;;;;;;18.00;9.10;;;6.40;92.00;;;;;;9186835;19;20808;-75
2022/01/27 08:27:19;;;;;;;15.45;7.97;;;6.50;92.00;;;;;;9184393;19;20019;-75
2022/01/27 08:30:39;;;;;;;13.18;7.72;;;6.50;92.00;;;;;;9186649;19;20010;-76
2022/01/27 08:33:44;;;;;;;13.73;7.80;;;6.50;92.10;;;;;;9181935;19;20010;-75
2022/01/27 08:36:52;;;;;;;13.15;7.03;;;6.50;92.10;;;;;;9183847;19;20799;-76
2022/01/27 08:39:58;;;;;;;17.80;8.00;;;6.60;92.10;;;;;;9183734;19;20030;-75
2022/01/27 08:43:23;;;;;;;16.08;7.50;;;6.60;92.10;;;;;;9186147;19;20006;-76
2022/01/27 08:46:31;;;;;;;10.88;6.75;;;6.60;92.10;;;;;;9187390;19;20011;-76
2022/01/27 08:49:37;;;;;;;16.80;6.80;;;6.70;92.20;;;;;;9188416;19;20476;-76
2022/01/27 08:52:46;;;;;;;12.55;6.97;;;6.70;92.20;;;;;;9187241;19;20040;-77
2022/01/27 08:55:51;;;;;;;11.43;6.55;;;6.70;92.20;;;;;;9184976;19;20061;-76
2022/01/27 08:58:57;;;;;;;9.93;6.53;;;6.80;92.20;;;;;;9182589;19;20049;-76
2022/01/27 09:02:03;;;;;;;12.25;6.85;;;6.80;92.20;;;;;;9184335;19;20014;-78
2022/01/27 09:05:08;;;;;;;14.05;6.35;;;6.80;92.30;;;;;;9186964;19;20014;-76
2022/01/27 09:08:16;;;;;;;11.15;6.03;;;6.90;92.30;;;;;;9193669;19;20011;-76
2022/01/27 09:11:22;;;;;;;10.65;6.03;;;6.90;92.30;;;;;;9199521;19;20594;-76
2022/01/27 09:14:46;;;;;;;11.27;6.18;;;7.00;92.30;;;;;;9197745;19;20018;-79
2022/01/27 09:17:52;;;;;;;10.60;5.65;;;7.00;92.30;;;;;;9193281;19;20011;-77
2022/01/27 09:21:00;;;;;;;9.77;5.32;;;7.00;92.30;;;;;;9188280;19;20471;-76
2022/01/27 09:24:13;;;;;;;10.95;5.03;;;7.10;92.40;;;;;;9181798;19;20010;-77
2022/01/27 09:27:19;;;;;;;9.98;4.80;;;7.10;92.40;;;;;;9181300;19;20391;-75
2022/01/27 09:30:24;;;;;;;8.70;4.57;;;7.10;92.40;;;;;;9182329;19;20022;-77
2022/01/27 09:33:29;;;;;;;6.30;4.40;;;7.20;92.50;;;;;;9182474;19;20021;-77
2022/01/27 09:36:34;;;;;;;7.35;4.68;;;7.20;92.50;;;;;;9182651;19;20082;-77
2022/01/27 09:39:42;;;;;;;6.93;4.10;;;7.20;92.50;;;;;;9179672;19;20030;-76
2022/01/27 09:42:51;;;;;;;5.30;3.35;;;7.30;92.50;;;;;;9182821;19;20014;-77
2022/01/27 09:45:57;;;;;;;5.03;3.60;;;7.30;92.50;;;;;;9181260;19;20364;-75
2022/01/27 09:49:11;;;;;;;5.15;3.63;;;7.30;92.50;;;;;;9180893;19;20017;-75
2022/01/27 09:52:17;;;;;;;6.47;3.70;;;7.40;92.50;;;;;;9179900;19;20025;-76
2022/01/27 09:55:25;;;;;;;5.70;3.67;;;7.40;92.60;;;;;;9180600;19;20007;-80
2022/01/27 09:58:38;;;;;;;5.05;3.20;;;7.40;92.60;;;;;;9180959;19;20078;-80
2022/01/27 10:01:56;;;;;;;4.80;2.78;;;7.50;92.60;;;;;;9180740;19;20018;-80
2022/01/27 10:05:02;;;;;;;7.28;3.65;;;7.50;92.60;;;;;;9176399;19;20021;-78
2022/01/27 10:08:11;;;;;;;4.20;2.85;;;7.60;92.60;;;;;;9179656;19;20026;-81
2022/01/27 10:11:21;;;;;;;3.20;2.88;;;7.60;92.60;;;;;;9183084;19;20011;-80
2022/01/27 10:14:32;;;;;;;5.23;3.10;;;7.60;92.60;;;;;;9040249;19;2746237;-80
2022/01/27 10:17:39;;;;;;;5.07;3.03;;;7.60;92.60;;;;;;9184144;19;20622;-79
2022/01/27 10:20:47;;;;;;;4.55;3.00;;;7.70;92.60;;;;;;9184169;19;20065;-80
2022/01/27 10:23:53;;;;;;;3.45;2.90;;;7.70;92.70;;;;;;9185347;19;20479;-79
2022/01/27 10:27:29;;;;;;;5.07;3.05;;;7.70;92.70;;;;;;9184365;19;20483;-81
2022/01/27 10:33:48;;;;;;;7.88;3.38;;;7.80;92.70;;;;;;9182815;19;20021;-77
2022/01/27 10:36:58;;;;;;;4.88;3.08;;;7.80;92.70;;;;;;9181590;19;20014;-81
2022/01/27 10:40:03;;;;;;;6.50;3.25;;;7.80;92.70;;;;;;9183448;19;20052;-80
2022/01/27 10:43:14;;;;;;;6.55;3.08;;;7.90;92.70;;;;;;9183432;19;20010;-81
2022/01/27 10:46:26;;;;;;;4.50;3.42;;;7.90;92.80;;;;;;9185629;19;20597;-80
2022/01/27 10:49:32;;;;;;;4.15;3.20;;;7.90;92.70;;;;;;9181668;19;20015;-80
2022/01/27 10:52:41;;;;;;;6.10;3.33;;;8.00;92.80;;;;;;9181172;19;20014;-79
2022/01/27 10:55:46;;;;;;;5.35;2.97;;;8.00;92.80;;;;;;9183111;19;20010;-80
2022/01/27 10:58:55;;;;;;;5.40;3.38;;;8.00;92.80;;;;;;9183093;19;20471;-81
2022/01/27 11:02:01;;;;;;;4.35;3.13;;;8.00;92.80;;;;;;9185289;19;20011;-79
2022/01/27 11:05:19;;;;;;;4.65;2.88;;;8.00;92.80;;;;;;9176718;19;20018;-80
2022/01/27 11:08:26;;;;;;;6.60;3.10;;;8.10;92.90;;;;;;9177760;19;20014;-81
2022/01/27 11:11:31;;;;;;;4.65;3.00;;;8.10;92.80;;;;;;9180745;19;20052;-74
2022/01/27 11:14:40;;;;;;;4.30;3.13;;;8.10;92.80;;;;;;9183574;19;20582;-74
2022/01/27 11:17:45;;;;;;;5.43;2.92;;;8.20;92.90;;;;;;9172732;19;20021;-74
2022/01/27 11:21:23;;;;;;;4.93;3.15;;;8.20;92.80;;;;;;9183426;19;20018;-74
2022/01/27 11:24:54;;;;;;;5.20;2.65;;;8.20;92.80;;;;;;9179418;19;20019;-74
2022/01/27 11:28:02;;;;;;;3.88;2.90;;;8.20;92.90;;;;;;9178339;19;20025;-74
2022/01/27 11:31:19;;;;;;;6.22;3.15;;;8.30;92.90;;;;;;9182338;19;20491;-73
2022/01/27 11:34:25;;;;;;;5.85;3.20;;;8.30;92.90;;;;;;9180735;19;20015;-74
2022/01/27 11:37:34;;;;;;;4.90;3.08;;;8.30;92.90;;;;;;9181219;19;20011;-74
2022/01/27 11:40:42;;;;;;;4.38;2.97;;;8.30;92.90;;;;;;9178301;19;20007;-73
2022/01/27 11:43:47;;;;;;;6.30;3.22;;;8.30;92.90;;;;;;9175631;19;20018;-74
2022/01/27 11:47:23;;;;;;;9.23;3.55;;;8.40;92.90;;;;;;9181399;19;20022;-74
2022/01/27 11:50:33;;;;;;;8.40;3.30;;;8.40;93.00;;;;;;9175608;19;20026;-73
2022/01/27 11:53:42;;;;;;;10.18;2.97;;;8.40;92.90;;;;;;9180759;19;20030;-73
2022/01/27 11:56:49;;;;;;;7.35;3.17;;;8.50;93.00;;;;;;9176440;19;20983;-73
2022/01/27 12:00:10;;;;;;;6.78;3.30;;;8.40;93.00;;;;;;9176793;19;20021;-73
2022/01/27 12:03:20;;;;;;;9.65;3.63;;;8.50;93.00;;;;;;9176176;19;20026;-73
2022/01/27 12:06:26;;;;;;;12.18;3.33;;;8.50;93.00;;;;;;9178414;19;20025;-73
2022/01/27 12:09:33;;;;;;;9.40;3.70;;;8.60;93.10;;;;;;9175867;19;20033;-73
2022/01/27 12:12:39;;;;;;;10.55;3.15;;;8.60;93.10;;;;;;9180964;19;20492;-73
2022/01/27 12:16:37;;;;;;;10.20;3.47;;;8.70;93.10;;;;;;9176658;19;20372;-73
2022/01/27 12:19:53;;;;;;;9.65;3.53;;;8.70;93.20;;;;;;9172224;19;20085;-73
2022/01/27 12:23:14;;;;;;;8.00;3.88;;;8.70;93.20;;;;;;9174392;19;20018;-73
2022/01/27 12:26:46;;;;;;;11.48;3.28;;;8.80;93.20;;;;;;9177047;19;20015;-74
2022/01/27 12:29:53;;;;;;;9.93;3.65;;;8.90;93.20;;;;;;9176842;19;20635;-72
2022/01/27 12:32:59;;;;;;;9.23;3.28;;;8.90;93.20;;;;;;9176155;19;20082;-74
2022/01/27 12:36:07;;;;;;;8.60;3.30;;;9.00;93.30;;;;;;9171886;19;20021;-72
2022/01/27 12:39:12;;;;;;;10.63;3.40;;;9.00;93.30;;;;;;9172797;19;20349;-72
2022/01/27 12:42:24;;;;;;;8.10;3.08;;;9.10;93.20;;;;;;9170818;19;20049;-73
2022/01/27 12:45:31;;;;;;;10.07;3.10;;;9.20;93.30;;;;;;9170013;19;20026;-73
2022/01/27 12:48:38;;;;;;;9.75;2.70;;;9.20;93.30;;;;;;9171108;19;20022;-72
2022/01/27 12:52:06;;;;;;;7.55;2.53;;;9.20;93.20;;;;;;9172832;19;20053;-73
2022/01/27 12:55:12;;;;;;;;;;;9.30;93.30;;;;;;9176674;19;20010;-73
2022/01/27 12:58:25;;;;;;;9.75;2.95;;;9.30;93.20;;;;;;9169566;19;19927;-73
2022/01/27 13:01:36;;;;;;;8.77;2.45;;;9.30;93.20;;;;;;9170590;19;20394;-73
2022/01/27 13:04:43;;;;;;;9.25;2.60;;;9.40;93.20;;;;;;9173380;19;20056;-73
2022/01/27 13:07:50;;;;;;;10.23;2.55;;;9.40;93.20;;;;;;9181705;19;20022;-73
2022/01/27 13:11:02;;;;;;;10.05;3.10;;;9.40;93.20;;;;;;9182677;19;20026;-73
2022/01/27 13:14:08;;;;;;;7.75;2.60;;;9.50;93.20;;;;;;9184789;19;20011;-73
2022/01/27 13:17:25;;;;;;;5.95;2.00;;;9.50;93.20;;;;;;9174471;19;20014;-73
2022/01/27 13:20:37;;;;;;;6.35;2.08;;;9.50;93.10;;;;;;9178708;19;20025;-73
2022/01/27 13:23:47;;;;;;;10.20;2.15;;;9.60;93.10;;;;;;9180018;19;20028;-73
2022/01/27 13:27:04;;;;;;;4.85;2.15;;;9.60;93.10;;;;;;9179888;19;20018;-73
2022/01/27 13:30:11;;;;;;;7.50;1.92;;;9.60;93.10;;;;;;9177812;19;20019;-74
2022/01/27 13:33:20;;;;;;;6.93;1.85;;;9.60;93.10;;;;;;9183269;19;20018;-73
2022/01/27 13:36:27;;;;;;;7.85;1.65;;;9.60;93.00;;;;;;9177325;19;20018;-72
2022/01/27 13:41:16;;;;;;;7.32;2.10;;;9.70;93.10;;;;;;9177167;19;20022;-74
2022/01/27 13:43:14;;;;;;;7.93;2.35;;;9.70;93.00;;;;;;9177044;19;20051;-73
2022/01/27 13:46:35;;;;;;;6.30;1.50;;;9.70;93.00;;;;;;9179216;19;20018;-73
2022/01/27 13:49:40;;;;;;;7.47;1.83;;;9.70;93.00;;;;;;9177513;19;20014;-75
2022/01/27 13:52:47;;;;;;;6.28;1.98;;;9.70;93.00;;;;;;9183546;19;20437;-72
2022/01/27 13:56:04;;;;;;;5.35;1.40;;;9.70;93.00;;;;;;9179261;19;20504;-73
2022/01/27 13:59:15;;;;;;;7.15;1.42;;;9.70;93.00;;;;;;9173395;19;20011;-73
2022/01/27 14:02:22;;;;;;;7.53;1.60;;;9.80;93.00;;;;;;9176408;19;20631;-73
2022/01/27 14:05:27;;;;;;;8.23;1.30;;;9.80;93.00;;;;;;9176471;19;20033;-74
2022/01/27 14:08:40;;;;;;;5.00;1.17;;;9.80;92.90;;;;;;9177199;19;20094;-74
2022/01/27 14:12:02;;;;;;;6.40;1.65;;;9.80;92.90;;;;;;9177695;19;20468;-73
2022/01/27 14:15:08;;;;;;;6.75;1.48;;;9.80;92.90;;;;;;9175942;19;20395;-73
2022/01/27 14:18:16;;;;;;;8.35;1.83;;;9.80;92.90;;;;;;9172908;19;20059;-74
2022/01/27 14:21:24;;;;;;;5.18;2.17;;;9.80;92.80;;;;;;9178813;19;20033;-74
2022/01/27 14:25:00;;;;;;;8.27;1.30;;;9.90;92.80;;;;;;9175439;19;20011;-73
2022/01/27 14:28:11;;;;;;;5.30;1.40;;;9.80;92.70;;;;;;9174694;19;20024;-72
2022/01/27 14:31:20;;;;;;;5.28;1.20;;;9.80;92.70;;;;;;9180870;19;20368;-73
2022/01/27 14:34:31;;;;;;;6.32;1.40;;;9.80;92.70;;;;;;9175085;19;20022;-73
2022/01/27 14:37:37;;;;;;;6.65;1.50;;;9.80;92.70;;;;;;9175173;19;20807;-75
2022/01/27 14:40:47;;;;;;;5.85;1.55;;;9.80;92.70;;;;;;9176963;19;20090;-73
2022/01/27 14:43:54;;;;;;;5.85;1.67;;;9.80;92.70;;;;;;9181366;19;20019;-72
2022/01/27 14:47:02;;;;;;;5.45;1.60;;;9.80;92.60;;;;;;9180564;19;20049;-73
2022/01/27 14:50:12;;;;;;;7.32;1.48;;;9.80;92.60;;;;;;9172936;19;20011;-73
2022/01/27 14:53:17;;;;;;;7.68;1.77;;;9.80;92.60;;;;;;9175757;19;20018;-74
2022/01/27 14:56:23;;;;;;;5.88;1.15;;;9.80;92.60;;;;;;9176976;19;20025;-73
2022/01/27 14:59:31;;;;;;;8.23;1.65;;;9.80;92.60;;;;;;9177156;19;20017;-71
2022/01/27 15:02:37;;;;;;;8.35;1.58;;;9.80;92.50;;;;;;9177189;19;20770;-73
2022/01/27 15:05:42;;;;;;;7.93;1.67;;;9.80;92.60;;;;;;9176271;19;20022;-73
2022/01/27 15:08:48;;;;;;;6.88;1.60;;;9.70;92.50;;;;;;9176199;19;20038;-74
2022/01/27 15:11:56;;;;;;;8.63;1.75;;;9.70;92.50;;;;;;9175956;19;20033;-72
2022/01/27 15:21:49;;;;;;;12.80;1.90;;;9.70;92.50;;;;;;9176088;19;20044;-73
2022/01/27 15:24:54;;;;;;;7.18;1.40;;;9.70;92.40;;;;;;9171751;19;20482;-73
2022/01/27 15:27:59;;;;;;;7.72;1.67;;;9.60;92.40;;;;;;9171131;19;20150;-72
2022/01/27 15:31:13;;;;;;;5.45;1.88;;;9.60;92.40;;;;;;9175266;19;20019;-72
2022/01/27 15:34:18;;;;;;;8.38;1.55;;;9.60;92.40;;;;;;9177277;19;20010;-72
2022/01/27 15:37:25;;;;;;;6.32;1.90;;;9.60;92.40;;;;;;9177268;19;20022;-72
2022/01/27 15:40:32;;;;;;;8.73;1.55;;;9.60;92.40;;;;;;9175033;19;20017;-73
2022/01/27 15:43:37;;;;;;;10.05;1.70;;;9.50;92.30;;;;;;9173200;19;20014;-73
2022/01/27 15:46:45;;;;;;;13.98;2.95;;;9.50;92.30;;;;;;9175121;19;20029;-73
2022/01/27 15:49:50;;;;;;;6.63;1.67;;;9.50;92.30;;;;;;9176638;19;20022;-73
2022/01/27 15:52:56;;;;;;;8.65;2.08;;;9.50;92.30;;;;;;9175731;19;20014;-73
2022/01/27 15:56:01;;;;;;;8.30;1.73;;;9.40;92.30;;;;;;9173205;19;20023;-72
2022/01/27 15:59:06;;;;;;;12.98;2.53;;;9.40;92.20;;;;;;9174320;19;20025;-72
2022/01/27 16:02:14;;;;;;;9.82;1.75;;;9.40;92.30;;;;;;9174444;19;20038;-73
2022/01/27 16:05:20;;;;;;;8.20;2.30;;;9.40;92.20;;;;;;9177446;19;20014;-73
2022/01/27 16:08:26;;;;;;;8.45;1.75;;;9.30;92.20;;;;;;9175271;19;20010;-73
2022/01/27 16:11:31;;;;;;;9.85;1.85;;;9.30;92.20;;;;;;9171363;19;20014;-72
2022/01/27 16:14:36;;;;;;;8.95;1.90;;;9.30;92.20;;;;;;9175460;19;20014;-73
2022/01/27 16:17:44;;;;;;;8.90;1.60;;;9.30;92.20;;;;;;9170224;19;20023;-73
2022/01/27 16:20:51;;;;;;;8.93;1.92;;;9.20;92.10;;;;;;9174611;19;20043;-73
2022/01/27 16:23:57;;;;;;;8.85;1.98;;;9.20;92.20;;;;;;9175800;19;20014;-73
2022/01/27 16:27:02;;;;;;;10.75;1.73;;;9.20;92.10;;;;;;9173161;19;20010;-73
2022/01/27 16:30:09;;;;;;;8.02;1.38;;;9.20;92.10;;;;;;9171906;19;20492;-72
2022/01/27 16:33:17;;;;;;;13.32;2.08;;;9.20;92.10;;;;;;9173914;19;20022;-73
2022/01/27 16:36:23;;;;;;;5.88;1.33;;;9.20;92.10;;;;;;9174115;19;20014;-73
2022/01/27 16:39:28;;;;;;;10.93;1.73;;;9.10;92.10;;;;;;9176415;19;20017;-73
2022/01/27 16:42:33;;;;;;;8.93;1.90;;;9.10;92.10;;;;;;9183357;19;20698;-73
2022/01/27 16:45:38;;;;;;;9.52;2.08;;;9.10;92.00;;;;;;9180894;19;20015;-73
2022/01/27 16:48:47;;;;;;;16.98;3.50;;;9.00;92.00;;;;;;9183557;19;20015;-73
2022/01/27 16:51:53;;;;;;;9.43;1.65;;;9.00;92.00;;;;;;9185110;19;20048;-74